sensor_id;sensor_type;location;lat;lon;timestamp;P1;durP1;ratioP1;P2;durP2;ratioP2
22127;SDS011;11230;50.854;6.454;2023-08-12T00:03:24;0.80;;;0.80;;
22127;SDS011;11230;50.854;6.454;2023-08-12T00:08:05;1.35;;;1.00;;
22127;SDS011;11230;50.854;6.454;2023-08-12T00:12:47;0.93;;;0.60;;
22127;SDS011;11230;50.854;6.454;2023-08-12T00:17:30;0.95;;;0.70;;
22127;SDS011;11230;50.854;6.454;2023-08-12T00:22:17;0.75;;;0.75;;
22127;SDS011;11230;50.854;6.454;2023-08-12T00:27:00;0.80;;;0.60;;
22127;SDS011;11230;50.854;6.454;2023-08-12T00:31:42;1.88;;;1.02;;
22127;SDS011;11230;50.854;6.454;2023-08-12T00:36:25;1.45;;;0.73;;
22127;SDS011;11230;50.854;6.454;2023-08-12T00:41:07;0.70;;;0.55;;
22127;SDS011;11230;50.854;6.454;2023-08-12T00:45:48;3.75;;;1.42;;
22127;SDS011;11230;50.854;6.454;2023-08-12T00:50:30;0.95;;;0.60;;
22127;SDS011;11230;50.854;6.454;2023-08-12T00:55:12;1.30;;;1.17;;
22127;SDS011;11230;50.854;6.454;2023-08-12T00:59:54;1.45;;;1.10;;
22127;SDS011;11230;50.854;6.454;2023-08-12T01:04:36;1.48;;;1.20;;
22127;SDS011;11230;50.854;6.454;2023-08-12T01:09:18;3.08;;;1.10;;
22127;SDS011;11230;50.854;6.454;2023-08-12T01:14:02;1.48;;;1.15;;
22127;SDS011;11230;50.854;6.454;2023-08-12T01:18:45;0.82;;;0.82;;
22127;SDS011;11230;50.854;6.454;2023-08-12T01:23:29;1.02;;;0.93;;
22127;SDS011;11230;50.854;6.454;2023-08-12T01:28:10;1.05;;;0.80;;
22127;SDS011;11230;50.854;6.454;2023-08-12T01:32:53;1.67;;;1.08;;
22127;SDS011;11230;50.854;6.454;2023-08-12T01:37:35;1.02;;;0.93;;
22127;SDS011;11230;50.854;6.454;2023-08-12T01:42:19;2.13;;;0.93;;
22127;SDS011;11230;50.854;6.454;2023-08-12T01:47:14;0.90;;;0.90;;
22127;SDS011;11230;50.854;6.454;2023-08-12T01:51:56;1.55;;;1.30;;
22127;SDS011;11230;50.854;6.454;2023-08-12T01:56:39;1.42;;;1.00;;
22127;SDS011;11230;50.854;6.454;2023-08-12T02:01:23;1.23;;;0.90;;
22127;SDS011;11230;50.854;6.454;2023-08-12T02:06:04;0.98;;;0.80;;
22127;SDS011;11230;50.854;6.454;2023-08-12T02:10:45;0.95;;;0.80;;
22127;SDS011;11230;50.854;6.454;2023-08-12T02:15:27;0.90;;;0.60;;
22127;SDS011;11230;50.854;6.454;2023-08-12T02:20:10;0.80;;;0.73;;
22127;SDS011;11230;50.854;6.454;2023-08-12T02:24:51;3.00;;;0.73;;
22127;SDS011;11230;50.854;6.454;2023-08-12T02:29:33;1.17;;;1.05;;
22127;SDS011;11230;50.854;6.454;2023-08-12T02:34:14;0.50;;;0.43;;
22127;SDS011;11230;50.854;6.454;2023-08-12T02:38:58;1.80;;;1.15;;
22127;SDS011;11230;50.854;6.454;2023-08-12T02:43:40;0.77;;;0.68;;
22127;SDS011;11230;50.854;6.454;2023-08-12T02:48:21;0.85;;;0.50;;
22127;SDS011;11230;50.854;6.454;2023-08-12T02:53:03;0.40;;;0.40;;
22127;SDS011;11230;50.854;6.454;2023-08-12T02:57:46;0.80;;;0.80;;
22127;SDS011;11230;50.854;6.454;2023-08-12T03:02:27;0.65;;;0.65;;
22127;SDS011;11230;50.854;6.454;2023-08-12T03:33:30;1.35;;;1.25;;
22127;SDS011;11230;50.854;6.454;2023-08-12T03:38:13;1.10;;;0.75;;
22127;SDS011;11230;50.854;6.454;2023-08-12T03:42:55;1.23;;;1.13;;
22127;SDS011;11230;50.854;6.454;2023-08-12T03:47:36;0.65;;;0.35;;
22127;SDS011;11230;50.854;6.454;2023-08-12T03:52:19;0.98;;;0.40;;
22127;SDS011;11230;50.854;6.454;2023-08-12T03:57:01;1.67;;;1.05;;
22127;SDS011;11230;50.854;6.454;2023-08-12T04:01:42;0.43;;;0.40;;
22127;SDS011;11230;50.854;6.454;2023-08-12T04:06:23;0.65;;;0.50;;
22127;SDS011;11230;50.854;6.454;2023-08-12T04:11:06;2.42;;;0.73;;
22127;SDS011;11230;50.854;6.454;2023-08-12T04:15:48;1.95;;;0.75;;
22127;SDS011;11230;50.854;6.454;2023-08-12T04:20:30;1.10;;;1.02;;
22127;SDS011;11230;50.854;6.454;2023-08-12T04:25:11;1.05;;;0.75;;
22127;SDS011;11230;50.854;6.454;2023-08-12T04:29:54;0.88;;;0.88;;
22127;SDS011;11230;50.854;6.454;2023-08-12T04:34:35;1.33;;;1.02;;
22127;SDS011;11230;50.854;6.454;2023-08-12T04:39:16;0.70;;;0.60;;
22127;SDS011;11230;50.854;6.454;2023-08-12T04:43:58;1.92;;;1.27;;
22127;SDS011;11230;50.854;6.454;2023-08-12T04:48:40;0.73;;;0.73;;
22127;SDS011;11230;50.854;6.454;2023-08-12T04:53:22;2.30;;;1.25;;
22127;SDS011;11230;50.854;6.454;2023-08-12T04:58:03;2.50;;;1.00;;
22127;SDS011;11230;50.854;6.454;2023-08-12T05:02:45;2.15;;;1.55;;
22127;SDS011;11230;50.854;6.454;2023-08-12T05:07:28;1.83;;;1.38;;
22127;SDS011;11230;50.854;6.454;2023-08-12T05:12:11;1.17;;;0.88;;
22127;SDS011;11230;50.854;6.454;2023-08-12T05:16:52;2.95;;;1.75;;
22127;SDS011;11230;50.854;6.454;2023-08-12T05:21:33;1.92;;;1.77;;
22127;SDS011;11230;50.854;6.454;2023-08-12T05:26:16;2.13;;;1.98;;
22127;SDS011;11230;50.854;6.454;2023-08-12T05:31:00;2.75;;;1.70;;
22127;SDS011;11230;50.854;6.454;2023-08-12T05:35:42;0.95;;;0.75;;
22127;SDS011;11230;50.854;6.454;2023-08-12T05:40:27;2.80;;;1.83;;
22127;SDS011;11230;50.854;6.454;2023-08-12T05:45:10;0.98;;;0.90;;
22127;SDS011;11230;50.854;6.454;2023-08-12T05:49:51;5.15;;;1.25;;
22127;SDS011;11230;50.854;6.454;2023-08-12T05:54:33;1.27;;;1.17;;
22127;SDS011;11230;50.854;6.454;2023-08-12T05:59:14;0.75;;;0.50;;
22127;SDS011;11230;50.854;6.454;2023-08-12T06:03:58;1.25;;;0.93;;
22127;SDS011;11230;50.854;6.454;2023-08-12T06:08:40;0.73;;;0.60;;
22127;SDS011;11230;50.854;6.454;2023-08-12T06:13:21;1.58;;;0.85;;
22127;SDS011;11230;50.854;6.454;2023-08-12T06:18:03;0.55;;;0.50;;
22127;SDS011;11230;50.854;6.454;2023-08-12T06:22:45;1.00;;;0.60;;
22127;SDS011;11230;50.854;6.454;2023-08-12T06:27:27;0.40;;;0.35;;
22127;SDS011;11230;50.854;6.454;2023-08-12T06:32:08;0.63;;;0.43;;
22127;SDS011;11230;50.854;6.454;2023-08-12T06:36:52;1.52;;;1.02;;
22127;SDS011;11230;50.854;6.454;2023-08-12T06:41:35;0.63;;;0.50;;
22127;SDS011;11230;50.854;6.454;2023-08-12T06:46:17;0.52;;;0.50;;
22127;SDS011;11230;50.854;6.454;2023-08-12T06:50:58;0.40;;;0.40;;
22127;SDS011;11230;50.854;6.454;2023-08-12T06:55:43;1.65;;;0.40;;
22127;SDS011;11230;50.854;6.454;2023-08-12T07:00:26;0.90;;;0.52;;
22127;SDS011;11230;50.854;6.454;2023-08-12T07:05:08;0.40;;;0.40;;
22127;SDS011;11230;50.854;6.454;2023-08-12T07:09:49;0.38;;;0.30;;
22127;SDS011;11230;50.854;6.454;2023-08-12T07:14:30;0.65;;;0.65;;
22127;SDS011;11230;50.854;6.454;2023-08-12T07:19:13;0.25;;;0.22;;
22127;SDS011;11230;50.854;6.454;2023-08-12T07:23:56;0.45;;;0.40;;
22127;SDS011;11230;50.854;6.454;2023-08-12T07:28:38;0.43;;;0.43;;
22127;SDS011;11230;50.854;6.454;2023-08-12T07:33:19;0.20;;;0.20;;
22127;SDS011;11230;50.854;6.454;2023-08-12T07:38:02;0.38;;;0.38;;
22127;SDS011;11230;50.854;6.454;2023-08-12T07:42:44;0.60;;;0.30;;
22127;SDS011;11230;50.854;6.454;2023-08-12T07:47:25;0.20;;;0.20;;
22127;SDS011;11230;50.854;6.454;2023-08-12T07:52:07;0.28;;;0.28;;
22127;SDS011;11230;50.854;6.454;2023-08-12T07:56:50;0.10;;;0.10;;
22127;SDS011;11230;50.854;6.454;2023-08-12T08:01:32;0.25;;;0.25;;
22127;SDS011;11230;50.854;6.454;2023-08-12T08:06:13;0.17;;;0.17;;
22127;SDS011;11230;50.854;6.454;2023-08-12T08:10:55;0.35;;;0.30;;
22127;SDS011;11230;50.854;6.454;2023-08-12T08:15:38;1.33;;;0.45;;
22127;SDS011;11230;50.854;6.454;2023-08-12T08:20:19;0.63;;;0.40;;
22127;SDS011;11230;50.854;6.454;2023-08-12T08:25:00;0.20;;;0.20;;
22127;SDS011;11230;50.854;6.454;2023-08-12T08:29:42;0.30;;;0.30;;
22127;SDS011;11230;50.854;6.454;2023-08-12T08:34:25;0.10;;;0.10;;
22127;SDS011;11230;50.854;6.454;2023-08-12T08:39:06;0.50;;;0.40;;
22127;SDS011;11230;50.854;6.454;2023-08-12T08:43:48;0.50;;;0.30;;
22127;SDS011;11230;50.854;6.454;2023-08-12T08:48:29;0.32;;;0.32;;
22127;SDS011;11230;50.854;6.454;2023-08-12T08:53:12;0.20;;;0.20;;
22127;SDS011;11230;50.854;6.454;2023-08-12T08:57:54;0.20;;;0.20;;
22127;SDS011;11230;50.854;6.454;2023-08-12T09:02:37;0.20;;;0.20;;
22127;SDS011;11230;50.854;6.454;2023-08-12T09:07:21;0.28;;;0.28;;
22127;SDS011;11230;50.854;6.454;2023-08-12T09:12:06;0.30;;;0.30;;
22127;SDS011;11230;50.854;6.454;2023-08-12T09:16:47;0.25;;;0.25;;
22127;SDS011;11230;50.854;6.454;2023-08-12T09:21:29;0.50;;;0.50;;
22127;SDS011;11230;50.854;6.454;2023-08-12T09:26:12;0.80;;;0.75;;
22127;SDS011;11230;50.854;6.454;2023-08-12T09:30:56;0.20;;;0.20;;
22127;SDS011;11230;50.854;6.454;2023-08-12T09:35:39;0.10;;;0.10;;
22127;SDS011;11230;50.854;6.454;2023-08-12T09:40:24;0.20;;;0.20;;
22127;SDS011;11230;50.854;6.454;2023-08-12T09:45:06;0.10;;;0.10;;
22127;SDS011;11230;50.854;6.454;2023-08-12T09:49:49;0.20;;;0.20;;
22127;SDS011;11230;50.854;6.454;2023-08-12T09:54:31;0.25;;;0.20;;
22127;SDS011;11230;50.854;6.454;2023-08-12T09:59:13;0.15;;;0.15;;
22127;SDS011;11230;50.854;6.454;2023-08-12T10:03:58;0.10;;;0.10;;
22127;SDS011;11230;50.854;6.454;2023-08-12T10:08:41;0.20;;;0.20;;
22127;SDS011;11230;50.854;6.454;2023-08-12T10:13:22;0.10;;;0.10;;
22127;SDS011;11230;50.854;6.454;2023-08-12T10:18:04;0.13;;;0.10;;
22127;SDS011;11230;50.854;6.454;2023-08-12T10:22:46;0.55;;;0.40;;
22127;SDS011;11230;50.854;6.454;2023-08-12T10:27:32;0.28;;;0.28;;
22127;SDS011;11230;50.854;6.454;2023-08-12T10:32:13;0.87;;;0.60;;
22127;SDS011;11230;50.854;6.454;2023-08-12T10:36:55;0.45;;;0.20;;
22127;SDS011;11230;50.854;6.454;2023-08-12T10:41:37;0.20;;;0.20;;
22127;SDS011;11230;50.854;6.454;2023-08-12T10:46:23;1.70;;;0.70;;
22127;SDS011;11230;50.854;6.454;2023-08-12T10:51:04;0.98;;;0.88;;
22127;SDS011;11230;50.854;6.454;2023-08-12T10:55:47;0.30;;;0.30;;
22127;SDS011;11230;50.854;6.454;2023-08-12T11:00:30;0.70;;;0.28;;
22127;SDS011;11230;50.854;6.454;2023-08-12T11:05:13;0.35;;;0.30;;
22127;SDS011;11230;50.854;6.454;2023-08-12T11:09:56;0.30;;;0.28;;
22127;SDS011;11230;50.854;6.454;2023-08-12T11:14:48;0.23;;;0.23;;
22127;SDS011;11230;50.854;6.454;2023-08-12T11:19:29;1.00;;;0.85;;
22127;SDS011;11230;50.854;6.454;2023-08-12T11:24:13;0.22;;;0.22;;
22127;SDS011;11230;50.854;6.454;2023-08-12T11:28:55;0.10;;;0.10;;
22127;SDS011;11230;50.854;6.454;2023-08-12T11:33:45;1.02;;;0.20;;
22127;SDS011;11230;50.854;6.454;2023-08-12T11:38:27;0.20;;;0.17;;
22127;SDS011;11230;50.854;6.454;2023-08-12T11:43:12;0.20;;;0.20;;
22127;SDS011;11230;50.854;6.454;2023-08-12T11:47:54;0.00;;;0.00;;
22127;SDS011;11230;50.854;6.454;2023-08-12T11:52:36;1.98;;;0.40;;
22127;SDS011;11230;50.854;6.454;2023-08-12T11:57:18;4.18;;;0.80;;
22127;SDS011;11230;50.854;6.454;2023-08-12T12:02:02;2.08;;;1.17;;
22127;SDS011;11230;50.854;6.454;2023-08-12T12:06:44;1.87;;;0.60;;
22127;SDS011;11230;50.854;6.454;2023-08-12T12:11:25;2.15;;;1.02;;
22127;SDS011;11230;50.854;6.454;2023-08-12T12:16:09;0.20;;;0.20;;
22127;SDS011;11230;50.854;6.454;2023-08-12T12:20:55;0.15;;;0.15;;
22127;SDS011;11230;50.854;6.454;2023-08-12T12:25:37;0.30;;;0.30;;
22127;SDS011;11230;50.854;6.454;2023-08-12T12:30:19;0.10;;;0.10;;
22127;SDS011;11230;50.854;6.454;2023-08-12T12:35:01;0.10;;;0.10;;
22127;SDS011;11230;50.854;6.454;2023-08-12T12:39:43;0.20;;;0.20;;
22127;SDS011;11230;50.854;6.454;2023-08-12T12:44:25;0.10;;;0.10;;
22127;SDS011;11230;50.854;6.454;2023-08-12T12:49:06;0.10;;;0.10;;
22127;SDS011;11230;50.854;6.454;2023-08-12T12:53:48;0.10;;;0.10;;
22127;SDS011;11230;50.854;6.454;2023-08-12T12:58:33;0.13;;;0.13;;
22127;SDS011;11230;50.854;6.454;2023-08-12T13:03:15;0.03;;;0.03;;
22127;SDS011;11230;50.854;6.454;2023-08-12T13:07:57;0.50;;;0.20;;
22127;SDS011;11230;50.854;6.454;2023-08-12T13:12:38;0.10;;;0.10;;
22127;SDS011;11230;50.854;6.454;2023-08-12T13:17:21;0.40;;;0.30;;
22127;SDS011;11230;50.854;6.454;2023-08-12T13:22:02;0.10;;;0.10;;
22127;SDS011;11230;50.854;6.454;2023-08-12T13:26:44;0.30;;;0.30;;
22127;SDS011;11230;50.854;6.454;2023-08-12T13:31:25;0.57;;;0.32;;
22127;SDS011;11230;50.854;6.454;2023-08-12T13:36:08;0.13;;;0.10;;
22127;SDS011;11230;50.854;6.454;2023-08-12T13:40:50;0.10;;;0.10;;
22127;SDS011;11230;50.854;6.454;2023-08-12T13:45:31;0.08;;;0.08;;
22127;SDS011;11230;50.854;6.454;2023-08-12T13:50:12;0.10;;;0.10;;
22127;SDS011;11230;50.854;6.454;2023-08-12T13:54:55;1.25;;;0.10;;
22127;SDS011;11230;50.854;6.454;2023-08-12T13:59:37;0.10;;;0.10;;
22127;SDS011;11230;50.854;6.454;2023-08-12T14:04:20;0.22;;;0.22;;
22127;SDS011;11230;50.854;6.454;2023-08-12T14:09:04;0.10;;;0.10;;
22127;SDS011;11230;50.854;6.454;2023-08-12T14:13:49;0.20;;;0.20;;
22127;SDS011;11230;50.854;6.454;2023-08-12T14:18:33;1.33;;;0.25;;
22127;SDS011;11230;50.854;6.454;2023-08-12T14:23:15;0.43;;;0.25;;
22127;SDS011;11230;50.854;6.454;2023-08-12T14:27:56;0.10;;;0.10;;
22127;SDS011;11230;50.854;6.454;2023-08-12T14:32:47;0.25;;;0.25;;
22127;SDS011;11230;50.854;6.454;2023-08-12T14:37:29;0.20;;;0.20;;
22127;SDS011;11230;50.854;6.454;2023-08-12T14:42:10;0.08;;;0.08;;
22127;SDS011;11230;50.854;6.454;2023-08-12T14:46:52;0.10;;;0.10;;
22127;SDS011;11230;50.854;6.454;2023-08-12T14:51:37;0.47;;;0.20;;
22127;SDS011;11230;50.854;6.454;2023-08-12T14:56:19;0.20;;;0.20;;
22127;SDS011;11230;50.854;6.454;2023-08-12T15:01:02;0.32;;;0.10;;
22127;SDS011;11230;50.854;6.454;2023-08-12T15:05:44;0.13;;;0.13;;
22127;SDS011;11230;50.854;6.454;2023-08-12T15:10:26;0.20;;;0.20;;
22127;SDS011;11230;50.854;6.454;2023-08-12T15:15:11;0.40;;;0.30;;
22127;SDS011;11230;50.854;6.454;2023-08-12T15:19:53;0.20;;;0.20;;
22127;SDS011;11230;50.854;6.454;2023-08-12T15:24:34;0.10;;;0.10;;
22127;SDS011;11230;50.854;6.454;2023-08-12T15:29:17;0.30;;;0.30;;
22127;SDS011;11230;50.854;6.454;2023-08-12T15:33:59;0.40;;;0.30;;
22127;SDS011;11230;50.854;6.454;2023-08-12T15:38:41;0.22;;;0.17;;
22127;SDS011;11230;50.854;6.454;2023-08-12T15:43:22;0.30;;;0.30;;
22127;SDS011;11230;50.854;6.454;2023-08-12T15:48:07;0.15;;;0.15;;
22127;SDS011;11230;50.854;6.454;2023-08-12T15:52:49;0.97;;;0.83;;
22127;SDS011;11230;50.854;6.454;2023-08-12T15:57:30;0.13;;;0.13;;
22127;SDS011;11230;50.854;6.454;2023-08-12T16:02:14;0.60;;;0.60;;
22127;SDS011;11230;50.854;6.454;2023-08-12T16:06:56;1.50;;;0.45;;
22127;SDS011;11230;50.854;6.454;2023-08-12T16:11:40;0.80;;;0.38;;
22127;SDS011;11230;50.854;6.454;2023-08-12T16:26:35;0.43;;;0.38;;
22127;SDS011;11230;50.854;6.454;2023-08-12T16:31:16;0.10;;;0.10;;
22127;SDS011;11230;50.854;6.454;2023-08-12T16:35:58;0.22;;;0.20;;
22127;SDS011;11230;50.854;6.454;2023-08-12T16:40:39;0.13;;;0.13;;
22127;SDS011;11230;50.854;6.454;2023-08-12T16:45:22;0.73;;;0.20;;
22127;SDS011;11230;50.854;6.454;2023-08-12T16:50:03;3.30;;;0.57;;
22127;SDS011;11230;50.854;6.454;2023-08-12T16:54:45;0.20;;;0.20;;
22127;SDS011;11230;50.854;6.454;2023-08-12T16:59:26;0.50;;;0.30;;
22127;SDS011;11230;50.854;6.454;2023-08-12T17:04:09;0.20;;;0.17;;
22127;SDS011;11230;50.854;6.454;2023-08-12T17:08:51;0.35;;;0.30;;
22127;SDS011;11230;50.854;6.454;2023-08-12T17:13:33;0.20;;;0.17;;
22127;SDS011;11230;50.854;6.454;2023-08-12T17:18:15;0.20;;;0.20;;
22127;SDS011;11230;50.854;6.454;2023-08-12T17:22:58;0.35;;;0.20;;
22127;SDS011;11230;50.854;6.454;2023-08-12T17:27:39;0.35;;;0.22;;
22127;SDS011;11230;50.854;6.454;2023-08-12T17:32:21;0.60;;;0.22;;
22127;SDS011;11230;50.854;6.454;2023-08-12T17:37:02;0.20;;;0.20;;
22127;SDS011;11230;50.854;6.454;2023-08-12T17:41:45;0.20;;;0.20;;
22127;SDS011;11230;50.854;6.454;2023-08-12T17:46:26;0.10;;;0.10;;
22127;SDS011;11230;50.854;6.454;2023-08-12T17:51:08;0.10;;;0.10;;
22127;SDS011;11230;50.854;6.454;2023-08-12T17:55:52;0.03;;;0.03;;
22127;SDS011;11230;50.854;6.454;2023-08-12T18:00:35;0.40;;;0.32;;
22127;SDS011;11230;50.854;6.454;2023-08-12T18:05:16;0.20;;;0.20;;
22127;SDS011;11230;50.854;6.454;2023-08-12T18:09:58;0.10;;;0.10;;
22127;SDS011;11230;50.854;6.454;2023-08-12T18:14:39;0.50;;;0.35;;
22127;SDS011;11230;50.854;6.454;2023-08-12T18:19:22;0.20;;;0.20;;
22127;SDS011;11230;50.854;6.454;2023-08-12T18:24:03;0.13;;;0.13;;
22127;SDS011;11230;50.854;6.454;2023-08-12T18:28:45;0.40;;;0.40;;
22127;SDS011;11230;50.854;6.454;2023-08-12T18:33:27;0.30;;;0.20;;
22127;SDS011;11230;50.854;6.454;2023-08-12T18:38:10;0.30;;;0.30;;
22127;SDS011;11230;50.854;6.454;2023-08-12T18:42:51;0.50;;;0.47;;
22127;SDS011;11230;50.854;6.454;2023-08-12T18:47:32;0.15;;;0.15;;
22127;SDS011;11230;50.854;6.454;2023-08-12T18:52:14;0.10;;;0.10;;
22127;SDS011;11230;50.854;6.454;2023-08-12T18:56:57;0.20;;;0.20;;
22127;SDS011;11230;50.854;6.454;2023-08-12T19:01:39;0.17;;;0.17;;
22127;SDS011;11230;50.854;6.454;2023-08-12T19:06:20;0.47;;;0.40;;
22127;SDS011;11230;50.854;6.454;2023-08-12T19:11:02;0.20;;;0.20;;
22127;SDS011;11230;50.854;6.454;2023-08-12T19:15:45;0.30;;;0.20;;
22127;SDS011;11230;50.854;6.454;2023-08-12T19:20:26;0.30;;;0.30;;
22127;SDS011;11230;50.854;6.454;2023-08-12T19:25:07;0.20;;;0.20;;
22127;SDS011;11230;50.854;6.454;2023-08-12T19:29:49;0.52;;;0.50;;
22127;SDS011;11230;50.854;6.454;2023-08-12T19:34:32;11.98;;;0.50;;
22127;SDS011;11230;50.854;6.454;2023-08-12T19:39:17;0.45;;;0.45;;
22127;SDS011;11230;50.854;6.454;2023-08-12T19:43:59;0.22;;;0.22;;
22127;SDS011;11230;50.854;6.454;2023-08-12T19:48:40;0.30;;;0.25;;
22127;SDS011;11230;50.854;6.454;2023-08-12T19:53:23;0.75;;;0.43;;
22127;SDS011;11230;50.854;6.454;2023-08-12T19:58:05;14.15;;;0.82;;
22127;SDS011;11230;50.854;6.454;2023-08-12T20:02:46;0.45;;;0.45;;
22127;SDS011;11230;50.854;6.454;2023-08-12T20:07:27;0.60;;;0.30;;
22127;SDS011;11230;50.854;6.454;2023-08-12T20:12:10;0.20;;;0.20;;
22127;SDS011;11230;50.854;6.454;2023-08-12T20:16:51;0.50;;;0.30;;
22127;SDS011;11230;50.854;6.454;2023-08-12T20:21:33;1.65;;;0.60;;
22127;SDS011;11230;50.854;6.454;2023-08-12T20:26:14;0.13;;;0.13;;
22127;SDS011;11230;50.854;6.454;2023-08-12T20:30:57;0.40;;;0.40;;
22127;SDS011;11230;50.854;6.454;2023-08-12T20:35:39;1.85;;;1.10;;
22127;SDS011;11230;50.854;6.454;2023-08-12T20:40:20;0.88;;;0.68;;
22127;SDS011;11230;50.854;6.454;2023-08-12T20:45:02;3.35;;;1.50;;
22127;SDS011;11230;50.854;6.454;2023-08-12T20:49:45;3.17;;;2.75;;
22127;SDS011;11230;50.854;6.454;2023-08-12T20:54:27;6.97;;;3.80;;
22127;SDS011;11230;50.854;6.454;2023-08-12T20:59:08;4.10;;;2.80;;
22127;SDS011;11230;50.854;6.454;2023-08-12T21:03:50;10.05;;;4.32;;
22127;SDS011;11230;50.854;6.454;2023-08-12T21:08:32;7.50;;;4.70;;
22127;SDS011;11230;50.854;6.454;2023-08-12T21:13:14;11.68;;;5.88;;
22127;SDS011;11230;50.854;6.454;2023-08-12T21:17:55;7.43;;;5.05;;
22127;SDS011;11230;50.854;6.454;2023-08-12T21:22:36;7.72;;;3.53;;
22127;SDS011;11230;50.854;6.454;2023-08-12T21:27:19;6.03;;;3.40;;
22127;SDS011;11230;50.854;6.454;2023-08-12T21:32:01;4.35;;;3.03;;
22127;SDS011;11230;50.854;6.454;2023-08-12T21:36:42;7.63;;;1.88;;
22127;SDS011;11230;50.854;6.454;2023-08-12T21:41:23;4.03;;;2.53;;
22127;SDS011;11230;50.854;6.454;2023-08-12T21:46:06;2.80;;;1.38;;
22127;SDS011;11230;50.854;6.454;2023-08-12T21:50:48;1.40;;;1.30;;
22127;SDS011;11230;50.854;6.454;2023-08-12T21:55:30;2.25;;;1.08;;
22127;SDS011;11230;50.854;6.454;2023-08-12T22:00:14;2.03;;;1.05;;
22127;SDS011;11230;50.854;6.454;2023-08-12T22:04:57;1.98;;;0.82;;
22127;SDS011;11230;50.854;6.454;2023-08-12T22:09:38;1.48;;;0.40;;
22127;SDS011;11230;50.854;6.454;2023-08-12T22:14:20;2.13;;;0.73;;
22127;SDS011;11230;50.854;6.454;2023-08-12T22:19:01;0.85;;;0.77;;
22127;SDS011;11230;50.854;6.454;2023-08-12T22:23:44;0.30;;;0.30;;
22127;SDS011;11230;50.854;6.454;2023-08-12T22:28:25;4.03;;;0.90;;
22127;SDS011;11230;50.854;6.454;2023-08-12T22:33:06;0.68;;;0.22;;
22127;SDS011;11230;50.854;6.454;2023-08-12T22:37:48;0.50;;;0.50;;
22127;SDS011;11230;50.854;6.454;2023-08-12T22:42:31;0.30;;;0.30;;
22127;SDS011;11230;50.854;6.454;2023-08-12T22:47:12;0.22;;;0.22;;
22127;SDS011;11230;50.854;6.454;2023-08-12T22:51:53;0.28;;;0.20;;
22127;SDS011;11230;50.854;6.454;2023-08-12T22:56:35;0.20;;;0.20;;
22127;SDS011;11230;50.854;6.454;2023-08-12T23:01:19;0.68;;;0.50;;
22127;SDS011;11230;50.854;6.454;2023-08-12T23:06:00;0.95;;;0.30;;
22127;SDS011;11230;50.854;6.454;2023-08-12T23:10:43;0.32;;;0.32;;
22127;SDS011;11230;50.854;6.454;2023-08-12T23:15:24;0.40;;;0.40;;
22127;SDS011;11230;50.854;6.454;2023-08-12T23:20:08;0.73;;;0.73;;
22127;SDS011;11230;50.854;6.454;2023-08-12T23:24:49;0.20;;;0.20;;
22127;SDS011;11230;50.854;6.454;2023-08-12T23:29:31;0.20;;;0.20;;
22127;SDS011;11230;50.854;6.454;2023-08-12T23:34:12;1.60;;;0.85;;
22127;SDS011;11230;50.854;6.454;2023-08-12T23:38:55;0.73;;;0.52;;
22127;SDS011;11230;50.854;6.454;2023-08-12T23:43:36;0.50;;;0.32;;
22127;SDS011;11230;50.854;6.454;2023-08-12T23:48:17;0.30;;;0.30;;
22127;SDS011;11230;50.854;6.454;2023-08-12T23:52:59;2.85;;;0.82;;
22127;SDS011;11230;50.854;6.454;2023-08-12T23:57:41;4.47;;;0.68;;
